createdAt,value
2018-11-05T00:01:13.820Z,99.90
2018-11-05T00:03:49.539Z,99.90
2018-11-05T00:06:25.961Z,99.90
2018-11-05T00:09:02.400Z,99.90
2018-11-05T00:11:56.030Z,99.90
2018-11-05T00:14:32.447Z,99.90
2018-11-05T00:17:09.121Z,99.90
2018-11-05T00:19:46.021Z,99.90
2018-11-05T00:22:22.124Z,99.90
2018-11-05T00:24:58.545Z,99.90
2018-11-05T00:27:34.476Z,99.90
2018-11-05T00:30:12.151Z,99.90
2018-11-05T00:32:48.545Z,99.90
2018-11-05T00:35:25.057Z,99.90
2018-11-05T00:38:00.743Z,99.90
2018-11-05T00:40:36.900Z,99.90
2018-11-05T00:43:13.165Z,99.90
2018-11-05T00:45:49.123Z,99.90
2018-11-05T00:48:24.838Z,99.90
2018-11-05T00:51:00.773Z,99.90
2018-11-05T00:53:36.810Z,99.90
2018-11-05T00:56:12.645Z,99.90
2018-11-05T00:58:48.458Z,99.90
2018-11-05T01:01:24.159Z,99.90
2018-11-05T01:03:59.916Z,99.90
2018-11-05T01:06:35.562Z,99.90
2018-11-05T01:09:11.564Z,99.90
2018-11-05T01:11:48.218Z,99.90
2018-11-05T01:14:24.185Z,99.90
2018-11-05T01:17:00.153Z,99.90
2018-11-05T01:19:35.818Z,99.90
2018-11-05T01:22:11.586Z,99.90
2018-11-05T01:24:47.607Z,99.90
2018-11-05T01:27:23.346Z,99.90
2018-11-05T01:29:59.286Z,99.90
2018-11-05T01:32:34.987Z,99.90
2018-11-05T01:35:12.810Z,99.90
2018-11-05T01:37:49.519Z,99.90
2018-11-05T01:40:25.254Z,99.90
2018-11-05T01:43:01.162Z,99.90
2018-11-05T01:45:37.228Z,99.90
2018-11-05T01:48:12.736Z,99.90
2018-11-05T01:50:48.546Z,99.90
2018-11-05T01:53:24.138Z,99.90
2018-11-05T01:56:00.234Z,99.90
2018-11-05T01:58:36.236Z,99.90
2018-11-05T02:01:11.892Z,99.90
2018-11-05T02:03:47.759Z,99.90
2018-11-05T02:06:24.072Z,99.90
2018-11-05T02:09:00.091Z,99.90
2018-11-05T02:11:35.791Z,99.90
2018-11-05T02:14:11.596Z,99.90
2018-11-05T02:16:48.158Z,99.90
2018-11-05T02:19:24.947Z,99.90
2018-11-05T02:22:00.922Z,99.90
2018-11-05T02:24:36.640Z,99.90
2018-11-05T02:27:12.422Z,99.90
2018-11-05T02:29:48.032Z,99.90
2018-11-05T02:32:23.655Z,99.90
2018-11-05T02:34:59.265Z,99.90
2018-11-05T02:37:35.024Z,99.90
2018-11-05T02:40:13.600Z,99.90
2018-11-05T02:42:51.004Z,99.90
2018-11-05T02:45:26.694Z,99.90
2018-11-05T02:48:02.608Z,99.90
2018-11-05T02:50:38.322Z,99.90
2018-11-05T02:53:14.522Z,99.90
2018-11-05T02:55:50.713Z,99.90
2018-11-05T02:58:28.078Z,99.90
2018-11-05T03:01:04.277Z,99.90
2018-11-05T03:03:40.159Z,99.90
2018-11-05T03:06:15.904Z,99.90
2018-11-05T03:08:52.184Z,99.90
2018-11-05T03:11:28.328Z,99.90
2018-11-05T03:14:04.142Z,99.90
2018-11-05T03:16:40.808Z,99.90
2018-11-05T03:19:16.527Z,99.90
2018-11-05T03:21:52.413Z,99.90
2018-11-05T03:24:29.093Z,99.90
2018-11-05T03:27:04.915Z,99.90
2018-11-05T03:29:40.883Z,99.90
2018-11-05T03:32:17.363Z,99.90
2018-11-05T03:34:53.301Z,99.90
2018-11-05T03:37:28.949Z,99.90
2018-11-05T03:40:05.321Z,99.90
2018-11-05T03:42:42.323Z,99.90
2018-11-05T03:45:18.430Z,99.90
2018-11-05T03:47:54.110Z,99.90
2018-11-05T03:50:30.704Z,99.90
2018-11-05T03:53:06.794Z,99.90
2018-11-05T03:55:42.620Z,99.90
2018-11-05T03:58:18.178Z,99.90
2018-11-05T04:00:54.030Z,99.90
2018-11-05T04:03:29.896Z,99.90
2018-11-05T04:06:06.759Z,99.90
2018-11-05T04:08:42.596Z,99.90
2018-11-05T04:11:18.262Z,99.90
2018-11-05T04:13:54.167Z,99.90
2018-11-05T04:16:30.314Z,99.90
2018-11-05T04:19:06.234Z,99.90
2018-11-05T04:21:46.229Z,99.90
2018-11-05T04:24:22.528Z,99.90
2018-11-05T04:26:58.452Z,99.90
2018-11-05T04:29:34.409Z,99.90
2018-11-05T04:32:10.138Z,99.90
2018-11-05T04:34:46.064Z,99.90
2018-11-05T04:37:21.735Z,99.90
2018-11-05T04:39:57.714Z,99.90
2018-11-05T04:42:33.394Z,99.90
2018-11-05T04:45:10.760Z,99.90
2018-11-05T04:47:47.083Z,99.90
2018-11-05T04:50:23.539Z,99.90
2018-11-05T04:52:59.732Z,99.90
2018-11-05T04:55:35.412Z,99.90
2018-11-05T04:58:11.102Z,99.90
2018-11-05T05:00:46.988Z,99.90
2018-11-05T05:03:23.579Z,99.90
2018-11-05T05:05:59.566Z,99.90
2018-11-05T05:08:35.146Z,99.90
2018-11-05T05:11:11.094Z,99.90
2018-11-05T05:13:46.937Z,99.90
2018-11-05T05:16:23.901Z,99.90
2018-11-05T05:18:59.797Z,99.90
2018-11-05T05:21:35.781Z,99.90
2018-11-05T05:24:11.650Z,99.90
2018-11-05T05:26:47.260Z,99.90
2018-11-05T05:29:23.179Z,99.90
2018-11-05T05:31:58.991Z,99.90
2018-11-05T05:34:34.844Z,99.90
2018-11-05T05:37:12.163Z,99.90
2018-11-05T05:39:48.256Z,99.90
2018-11-05T05:42:24.911Z,99.90
2018-11-05T05:45:00.877Z,99.90
2018-11-05T05:47:36.847Z,99.90
2018-11-05T05:50:16.494Z,99.90
2018-11-05T05:52:52.155Z,99.90
2018-11-05T05:55:27.923Z,99.90
2018-11-05T05:58:04.028Z,99.90
2018-11-05T06:00:40.602Z,99.90
2018-11-05T06:03:16.434Z,99.90
2018-11-05T06:05:52.294Z,99.90
2018-11-05T06:08:28.697Z,99.90
2018-11-05T06:11:04.947Z,99.90
2018-11-05T06:13:40.966Z,99.90
2018-11-05T06:16:16.882Z,99.90
2018-11-05T06:18:52.994Z,99.90
2018-11-05T06:21:30.060Z,99.90
2018-11-05T06:24:06.494Z,99.90
2018-11-05T06:26:42.676Z,99.90
2018-11-05T06:29:19.336Z,99.90
2018-11-05T06:31:54.924Z,99.90
2018-11-05T06:34:30.724Z,99.90
2018-11-05T06:37:06.964Z,99.90
2018-11-05T06:39:42.638Z,99.90
2018-11-05T06:42:18.435Z,99.90
2018-11-05T06:44:54.301Z,99.90
2018-11-05T06:47:29.882Z,99.90
2018-11-05T06:50:08.697Z,99.90
2018-11-05T06:52:45.073Z,99.90
2018-11-05T06:55:21.320Z,99.90
2018-11-05T06:57:57.351Z,99.90
2018-11-05T07:00:33.949Z,99.90
2018-11-05T07:03:09.771Z,99.90
2018-11-05T07:05:45.503Z,99.90
2018-11-05T07:08:21.231Z,99.90
2018-11-05T07:10:56.924Z,99.90
2018-11-05T07:13:32.709Z,99.90
2018-11-05T07:16:08.402Z,99.90
2018-11-05T07:18:44.270Z,99.90
2018-11-05T07:21:20.873Z,99.90
2018-11-05T07:23:56.826Z,99.90
2018-11-05T07:26:32.461Z,99.90
2018-11-05T07:29:08.922Z,99.90
2018-11-05T07:31:45.550Z,99.90
2018-11-05T07:34:22.142Z,99.90
2018-11-05T07:36:57.874Z,99.90
2018-11-05T07:39:33.842Z,99.90
2018-11-05T07:42:10.429Z,99.90
2018-11-05T07:44:46.302Z,99.90
2018-11-05T07:47:21.987Z,99.90
2018-11-05T07:49:57.873Z,99.90
2018-11-05T07:52:33.591Z,99.90
2018-11-05T07:55:11.333Z,99.90
2018-11-05T07:57:48.414Z,99.90
2018-11-05T08:00:29.375Z,99.90
2018-11-05T08:03:05.963Z,99.90
2018-11-05T08:05:43.489Z,99.90
2018-11-05T08:08:19.518Z,99.90
2018-11-05T08:10:55.279Z,99.90
2018-11-05T08:13:31.101Z,99.90
2018-11-05T08:16:07.161Z,99.90
2018-11-05T08:18:44.017Z,99.90
2018-11-05T08:21:20.948Z,99.90
2018-11-05T08:23:57.641Z,99.50
2018-11-05T08:26:33.803Z,99.10
2018-11-05T08:29:10.463Z,99.20
2018-11-05T08:31:47.584Z,98.40
2018-11-05T08:34:24.930Z,98.60
2018-11-05T08:37:02.538Z,98.00
2018-11-05T08:39:38.626Z,97.90
2018-11-05T08:42:14.484Z,97.40
2018-11-05T08:44:50.286Z,97.50
2018-11-05T08:47:26.523Z,97.10
2018-11-05T08:50:03.091Z,96.80
2018-11-05T08:52:39.119Z,96.20
2018-11-05T08:55:16.713Z,96.30
2018-11-05T08:57:52.705Z,95.90
2018-11-05T09:00:33.752Z,95.20
2018-11-05T09:03:10.328Z,95.60
2018-11-05T09:05:46.121Z,94.80
2018-11-05T09:08:22.151Z,94.60
2018-11-05T09:10:58.032Z,94.10
2018-11-05T09:13:33.764Z,94.00
2018-11-05T09:16:09.719Z,93.00
2018-11-05T09:18:45.333Z,93.20
2018-11-05T09:21:21.035Z,92.80
2018-11-05T09:23:56.944Z,92.60
2018-11-05T09:26:32.639Z,92.20
2018-11-05T09:29:08.480Z,92.20
2018-11-05T09:31:45.561Z,91.10
2018-11-05T09:34:21.632Z,91.00
2018-11-05T09:36:57.525Z,90.80
2018-11-05T09:39:33.399Z,90.60
2018-11-05T09:42:09.112Z,90.30
2018-11-05T09:44:44.918Z,89.10
2018-11-05T09:47:20.609Z,88.70
2018-11-05T09:49:56.677Z,88.10
2018-11-05T09:52:32.467Z,88.90
2018-11-05T09:55:10.224Z,87.40
2018-11-05T09:57:47.035Z,86.30
2018-11-05T10:00:26.541Z,85.70
2018-11-05T10:03:07.492Z,86.00
2018-11-05T10:05:43.946Z,86.00
2018-11-05T10:08:21.378Z,85.20
2018-11-05T10:10:58.272Z,84.90
2018-11-05T10:13:34.747Z,83.60
2018-11-05T10:16:10.405Z,83.00
2018-11-05T10:18:46.486Z,83.00
2018-11-05T10:21:22.436Z,83.40
2018-11-05T10:23:58.902Z,81.50
2018-11-05T10:26:34.577Z,81.60
2018-11-05T10:29:10.520Z,80.40
2018-11-05T10:31:46.395Z,80.40
2018-11-05T10:34:22.271Z,81.70
2018-11-05T10:36:57.980Z,79.50
2018-11-05T10:39:33.812Z,78.90
2018-11-05T10:42:09.360Z,78.90
2018-11-05T10:44:45.112Z,77.90
2018-11-05T10:47:20.970Z,77.40
2018-11-05T10:49:56.870Z,77.30
2018-11-05T10:52:32.810Z,76.70
2018-11-05T10:55:09.903Z,75.50
2018-11-05T10:57:46.666Z,75.30
2018-11-05T11:00:28.436Z,75.80
2018-11-05T11:03:10.485Z,76.80
2018-11-05T11:05:47.588Z,78.60
2018-11-05T11:08:23.594Z,78.70
2018-11-05T11:10:59.443Z,78.20
2018-11-05T11:13:34.979Z,77.00
2018-11-05T11:16:10.933Z,77.10
2018-11-05T11:18:46.652Z,76.00
2018-11-05T11:21:22.429Z,73.80
2018-11-05T11:23:58.082Z,74.40
2018-11-05T11:26:33.851Z,73.70
2018-11-05T11:29:09.662Z,73.40
2018-11-05T11:31:45.517Z,72.50
2018-11-05T11:34:22.072Z,72.10
2018-11-05T11:36:58.883Z,70.70
2018-11-05T11:39:34.580Z,71.40
2018-11-05T11:42:11.438Z,71.50
2018-11-05T11:44:47.006Z,72.30
2018-11-05T11:47:22.872Z,71.90
2018-11-05T11:49:59.536Z,72.50
2018-11-05T11:52:36.333Z,71.40
2018-11-05T11:55:14.799Z,71.30
2018-11-05T11:57:50.803Z,70.60
2018-11-05T12:00:27.575Z,70.40
2018-11-05T12:03:03.241Z,71.00
2018-11-05T12:05:39.950Z,70.60
2018-11-05T12:08:15.723Z,70.90
2018-11-05T12:10:51.403Z,70.70
2018-11-05T12:13:27.377Z,70.90
2018-11-05T12:16:03.874Z,70.60
2018-11-05T12:18:40.039Z,70.30
2018-11-05T12:21:15.747Z,70.70
2018-11-05T12:23:51.630Z,70.90
2018-11-05T12:26:27.562Z,70.60
2018-11-05T12:29:03.353Z,70.50
2018-11-05T12:31:39.053Z,69.70
2018-11-05T12:34:15.665Z,69.50
2018-11-05T12:36:51.728Z,68.80
2018-11-05T12:39:28.352Z,68.20
2018-11-05T12:42:04.076Z,67.80
2018-11-05T12:44:39.834Z,68.30
2018-11-05T12:47:15.742Z,68.30
2018-11-05T12:49:51.484Z,68.00
2018-11-05T12:52:27.471Z,67.60
2018-11-05T12:55:03.243Z,67.40
2018-11-05T12:57:40.161Z,67.50
2018-11-05T13:00:18.823Z,67.40
2018-11-05T13:02:58.824Z,67.10
2018-11-05T13:05:34.852Z,68.30
2018-11-05T13:08:11.414Z,67.60
2018-11-05T13:10:47.456Z,67.60
2018-11-05T13:13:23.156Z,69.00
2018-11-05T13:15:58.899Z,69.00
2018-11-05T13:18:35.225Z,67.10
2018-11-05T13:21:11.384Z,67.50
2018-11-05T13:23:47.671Z,65.70
2018-11-05T13:26:23.718Z,65.20
2018-11-05T13:29:00.399Z,65.00
2018-11-05T13:31:36.151Z,66.10
2018-11-05T13:34:12.154Z,64.70
2018-11-05T13:36:48.078Z,65.00
2018-11-05T13:39:23.826Z,64.30
2018-11-05T13:41:59.555Z,64.20
2018-11-05T13:44:35.344Z,63.40
2018-11-05T13:47:12.162Z,64.40
2018-11-05T13:49:47.511Z,64.50
2018-11-05T13:52:23.818Z,65.80
2018-11-05T13:55:00.462Z,67.00
2018-11-05T13:57:35.969Z,68.50
2018-11-05T14:00:13.725Z,68.60
2018-11-05T14:02:50.128Z,68.40
2018-11-05T14:05:26.301Z,69.00
2018-11-05T14:08:02.299Z,68.80
2018-11-05T14:10:38.877Z,69.50
2018-11-05T14:13:14.624Z,70.40
2018-11-05T14:15:50.328Z,70.70
2018-11-05T14:18:26.485Z,71.10
2018-11-05T14:21:02.082Z,71.00
2018-11-05T14:23:38.016Z,71.10
2018-11-05T14:26:14.606Z,71.80
2018-11-05T14:28:50.624Z,72.50
2018-11-05T14:31:26.095Z,73.20
2018-11-05T14:34:02.735Z,73.50
2018-11-05T14:36:38.872Z,74.80
2018-11-05T14:39:15.724Z,75.70
2018-11-05T14:41:52.190Z,76.30
2018-11-05T14:44:27.940Z,77.00
2018-11-05T14:47:03.809Z,77.60
2018-11-05T14:49:39.621Z,79.00
2018-11-05T14:52:15.327Z,78.50
2018-11-05T14:54:51.107Z,79.30
2018-11-05T14:57:27.131Z,79.60
2018-11-05T15:00:04.140Z,80.10
2018-11-05T15:02:41.114Z,80.30
2018-11-05T15:05:17.570Z,80.30
2018-11-05T15:07:53.964Z,80.70
2018-11-05T15:10:29.677Z,81.20
2018-11-05T15:13:06.589Z,81.10
2018-11-05T15:15:42.231Z,81.60
2018-11-05T15:18:19.017Z,82.20
2018-11-05T15:20:54.694Z,82.80
2018-11-05T15:23:30.373Z,83.20
2018-11-05T15:26:06.363Z,83.60
2018-11-05T15:28:42.127Z,84.10
2018-11-05T15:31:18.074Z,84.60
2018-11-05T15:33:54.170Z,85.20
2018-11-05T15:36:30.433Z,85.30
2018-11-05T15:39:08.156Z,85.80
2018-11-05T15:41:44.416Z,86.30
2018-11-05T15:44:20.179Z,86.80
2018-11-05T15:46:55.973Z,87.10
2018-11-05T15:49:33.084Z,88.40
2018-11-05T15:52:10.085Z,88.00
2018-11-05T15:54:45.914Z,88.60
2018-11-05T15:57:21.653Z,88.80
2018-11-05T15:59:57.629Z,88.50
2018-11-05T16:02:33.665Z,87.80
2018-11-05T16:05:10.111Z,87.10
2018-11-05T16:07:46.394Z,86.40
2018-11-05T16:10:23.004Z,86.10
2018-11-05T16:12:58.742Z,86.10
2018-11-05T16:15:35.663Z,86.10
2018-11-05T16:18:11.433Z,85.80
2018-11-05T16:20:47.263Z,85.20
2018-11-05T16:23:24.029Z,84.60
2018-11-05T16:26:00.683Z,84.00
2018-11-05T16:28:36.746Z,83.60
2018-11-05T16:31:13.598Z,83.20
2018-11-05T16:33:50.246Z,83.10
2018-11-05T16:36:27.194Z,82.80
2018-11-05T16:39:03.147Z,82.70
2018-11-05T16:41:40.773Z,82.70
2018-11-05T16:44:17.436Z,83.00
2018-11-05T16:46:53.481Z,82.90
2018-11-05T16:49:29.193Z,83.10
2018-11-05T16:52:05.347Z,83.30
2018-11-05T16:54:41.906Z,83.10
2018-11-05T16:57:18.617Z,82.90
2018-11-05T16:59:54.918Z,83.80
2018-11-05T17:02:31.648Z,83.90
2018-11-05T17:05:08.617Z,84.40
2018-11-05T17:07:44.864Z,84.70
2018-11-05T17:10:22.009Z,85.30
2018-11-05T17:12:58.692Z,85.70
2018-11-05T17:15:35.243Z,85.70
2018-11-05T17:18:11.993Z,85.80
2018-11-05T17:20:48.573Z,85.80
2018-11-05T17:23:24.595Z,85.80
2018-11-05T17:26:00.625Z,85.90
2018-11-05T17:28:37.222Z,85.90
2018-11-05T17:31:14.127Z,85.80
2018-11-05T17:33:50.885Z,85.80
2018-11-05T17:36:27.751Z,85.50
2018-11-05T17:39:07.118Z,85.70
2018-11-05T17:41:43.369Z,85.80
2018-11-05T17:44:19.922Z,86.00
2018-11-05T17:46:56.928Z,86.00
2018-11-05T17:49:33.656Z,86.20
2018-11-05T17:52:10.400Z,86.50
2018-11-05T17:54:48.387Z,86.80
2018-11-05T17:57:24.751Z,86.50
2018-11-05T18:00:00.930Z,86.60
2018-11-05T18:02:38.342Z,86.70
2018-11-05T18:05:15.788Z,86.70
2018-11-05T18:07:52.719Z,86.90
2018-11-05T18:10:29.926Z,86.60
2018-11-05T18:13:06.871Z,86.50
2018-11-05T18:15:44.036Z,86.30
2018-11-05T18:18:21.493Z,86.50
2018-11-05T18:20:57.547Z,86.20
2018-11-05T18:23:33.692Z,85.90
2018-11-05T18:26:10.340Z,85.80
2018-11-05T18:28:47.161Z,85.80
2018-11-05T18:31:24.728Z,86.90
2018-11-05T18:34:00.571Z,86.50
2018-11-05T18:36:37.195Z,86.70
2018-11-05T18:39:13.934Z,86.70
2018-11-05T18:41:52.119Z,87.10
2018-11-05T18:44:28.443Z,87.10
2018-11-05T18:47:05.304Z,87.40
2018-11-05T18:49:42.028Z,87.60
2018-11-05T18:52:18.555Z,87.60
2018-11-05T18:54:54.183Z,87.60
2018-11-05T18:57:30.187Z,87.70
2018-11-05T19:00:16.518Z,88.00
2018-11-05T19:02:53.728Z,88.00
2018-11-05T19:05:31.773Z,88.10
2018-11-05T19:08:10.713Z,88.10
2018-11-05T19:10:46.660Z,88.10
2018-11-05T19:13:23.736Z,88.10
2018-11-05T19:16:00.178Z,88.30
2018-11-05T19:18:36.033Z,88.10
2018-11-05T19:21:12.877Z,88.10
2018-11-05T19:23:49.979Z,88.40
2018-11-05T19:26:27.228Z,88.00
2018-11-05T19:29:03.289Z,88.00
2018-11-05T19:31:41.712Z,87.90
2018-11-05T19:34:18.375Z,87.50
2018-11-05T19:36:54.566Z,87.60
2018-11-05T19:39:31.824Z,87.80
2018-11-05T19:42:08.562Z,88.10
2018-11-05T19:44:44.823Z,88.10
2018-11-05T19:47:21.538Z,88.10
2018-11-05T19:49:58.159Z,88.10
2018-11-05T19:52:34.950Z,87.70
2018-11-05T19:55:13.967Z,87.30
2018-11-05T19:57:51.226Z,87.30
2018-11-05T20:00:28.469Z,87.50
2018-11-05T20:03:05.336Z,87.20
2018-11-05T20:05:42.073Z,86.70
2018-11-05T20:08:18.975Z,86.60
2018-11-05T20:10:56.278Z,86.00
2018-11-05T20:13:32.968Z,86.80
2018-11-05T20:16:09.482Z,87.50
2018-11-05T20:18:46.513Z,88.20
2018-11-05T20:21:23.077Z,88.90
2018-11-05T20:23:59.991Z,89.50
2018-11-05T20:26:38.026Z,89.30
2018-11-05T20:29:14.792Z,89.20
2018-11-05T20:31:51.866Z,88.80
2018-11-05T20:34:28.452Z,88.50
2018-11-05T20:37:08.484Z,87.90
2018-11-05T20:39:51.946Z,87.40
2018-11-05T20:42:28.519Z,87.60
2018-11-05T20:45:04.589Z,87.30
2018-11-05T20:47:42.308Z,87.10
2018-11-05T20:50:19.203Z,87.20
2018-11-05T20:52:55.812Z,87.20
2018-11-05T20:55:32.756Z,87.40
2018-11-05T20:58:09.259Z,87.40
2018-11-05T21:00:46.238Z,87.50
2018-11-05T21:03:22.835Z,87.80
2018-11-05T21:06:00.697Z,87.60
2018-11-05T21:08:37.310Z,87.80
2018-11-05T21:11:13.139Z,88.10
2018-11-05T21:13:49.435Z,88.60
2018-11-05T21:16:28.771Z,89.20
2018-11-05T21:19:05.631Z,89.60
2018-11-05T21:21:41.601Z,90.30
2018-11-05T21:24:18.273Z,90.40
2018-11-05T21:26:55.708Z,90.70
2018-11-05T21:29:31.720Z,90.50
2018-11-05T21:32:08.474Z,90.30
2018-11-05T21:34:44.142Z,90.30
2018-11-05T21:37:19.892Z,90.20
2018-11-05T21:39:56.350Z,90.20
2018-11-05T21:42:32.557Z,90.20
2018-11-05T21:45:10.900Z,90.20
2018-11-05T21:47:47.387Z,90.10
2018-11-05T21:50:24.083Z,90.00
2018-11-05T21:53:00.572Z,89.50
2018-11-05T21:55:36.821Z,89.40
2018-11-05T21:58:13.394Z,89.20
2018-11-05T22:00:50.074Z,89.20
2018-11-05T22:03:26.942Z,89.10
2018-11-05T22:06:03.645Z,89.00
2018-11-05T22:08:40.299Z,89.30
2018-11-05T22:11:16.330Z,89.40
2018-11-05T22:13:52.979Z,89.90
2018-11-05T22:16:28.682Z,90.40
2018-11-05T22:19:04.833Z,90.50
2018-11-05T22:21:41.314Z,90.60
2018-11-05T22:24:17.423Z,90.70
2018-11-05T22:26:53.294Z,90.80
2018-11-05T22:29:30.383Z,91.10
2018-11-05T22:32:06.842Z,90.60
2018-11-05T22:34:42.720Z,90.40
2018-11-05T22:37:18.461Z,90.30
2018-11-05T22:39:54.257Z,90.20
2018-11-05T22:42:30.322Z,90.10
2018-11-05T22:45:07.344Z,90.00
2018-11-05T22:47:44.530Z,90.30
2018-11-05T22:50:20.713Z,90.10
2018-11-05T22:52:57.292Z,90.10
2018-11-05T22:55:33.809Z,90.10
2018-11-05T22:58:09.674Z,90.20
2018-11-05T23:01:48.233Z,90.20
2018-11-05T23:04:24.221Z,90.50
2018-11-05T23:06:59.981Z,90.60
2018-11-05T23:09:35.974Z,90.80
2018-11-05T23:12:12.566Z,91.20
2018-11-05T23:14:48.483Z,91.20
2018-11-05T23:17:24.786Z,91.40
2018-11-05T23:20:00.917Z,91.50
2018-11-05T23:22:38.117Z,91.70
2018-11-05T23:25:15.284Z,91.60
2018-11-05T23:27:51.357Z,91.80
2018-11-05T23:30:27.733Z,92.20
2018-11-05T23:33:03.789Z,92.10
2018-11-05T23:35:39.486Z,92.40
2018-11-05T23:38:15.451Z,92.10
2018-11-05T23:40:51.355Z,92.20
2018-11-05T23:43:27.114Z,92.20
2018-11-05T23:46:03.938Z,92.40
2018-11-05T23:48:40.788Z,92.30
2018-11-05T23:51:17.572Z,92.50
2018-11-05T23:53:53.896Z,92.50
2018-11-05T23:56:31.114Z,92.60
2018-11-05T23:59:07.911Z,92.50
